createdAt,value
2022-11-20T00:01:16.449Z,98631.09
2022-11-20T00:03:44.016Z,98636.72
2022-11-20T00:06:14.064Z,98631.31
2022-11-20T00:08:41.888Z,98635.09
2022-11-20T00:11:15.333Z,98635.88
2022-11-20T00:13:42.748Z,98630.50
2022-11-20T00:16:11.934Z,98636.16
2022-11-20T00:18:38.880Z,98625.38
2022-11-20T00:21:07.149Z,98627.47
2022-11-20T00:23:35.629Z,98624.78
2022-11-20T00:26:04.531Z,98627.47
2022-11-20T00:28:31.634Z,98631.00
2022-11-20T00:31:03.243Z,98629.34
2022-11-20T00:33:30.434Z,98629.34
2022-11-20T00:36:00.836Z,98634.72
2022-11-20T00:38:27.715Z,98634.50
2022-11-20T00:40:57.648Z,98632.84
2022-11-20T00:43:25.193Z,98633.69
2022-11-20T00:45:56.672Z,98635.56
2022-11-20T00:48:23.461Z,98638.25
2022-11-20T00:50:50.236Z,98643.06
2022-11-20T00:53:17.134Z,98638.25
2022-11-20T00:55:43.893Z,98640.13
2022-11-20T00:58:14.442Z,98637.69
2022-11-20T01:00:41.490Z,98628.78
2022-11-20T01:03:08.278Z,98633.31
2022-11-20T01:05:36.415Z,98623.63
2022-11-20T01:08:03.218Z,98624.44
2022-11-20T01:10:30.076Z,98630.63
2022-11-20T01:13:15.500Z,98629.00
2022-11-20T01:15:43.616Z,98633.00
2022-11-20T01:18:10.397Z,98619.28
2022-11-20T01:20:37.711Z,98616.00
2022-11-20T01:23:04.637Z,98616.59
2022-11-20T01:25:31.462Z,98618.47
2022-11-20T01:27:58.193Z,98614.13
2022-11-20T01:30:25.028Z,98620.34
2022-11-20T01:32:53.144Z,98616.00
2022-11-20T01:35:20.929Z,98620.59
2022-11-20T01:37:47.702Z,98619.75
2022-11-20T01:40:14.599Z,98625.97
2022-11-20T01:43:05.400Z,98625.16
2022-11-20T01:45:58.098Z,98621.06
2022-11-20T01:48:31.041Z,98620.47
2022-11-20T01:50:59.870Z,98608.88
2022-11-20T01:53:32.554Z,98614.28
2022-11-20T01:56:02.263Z,98619.44
2022-11-20T01:58:32.823Z,98615.06
2022-11-20T02:01:00.075Z,98608.88
2022-11-20T02:03:29.199Z,98603.50
2022-11-20T02:06:03.751Z,98604.56
2022-11-20T02:08:31.412Z,98609.94
2022-11-20T02:10:58.219Z,98603.50
2022-11-20T02:13:43.757Z,98616.38
2022-11-20T02:16:20.560Z,98617.44
2022-11-20T02:18:49.603Z,98614.75
2022-11-20T02:21:34.320Z,98617.44
2022-11-20T02:24:10.512Z,98620.38
2022-11-20T02:26:45.239Z,98618.50
2022-11-20T02:29:12.051Z,98620.97
2022-11-20T02:31:41.737Z,98621.44
2022-11-20T02:34:09.108Z,98616.88
2022-11-20T02:36:37.692Z,98615.22
2022-11-20T02:39:06.709Z,98618.97
2022-11-20T02:41:35.367Z,98605.50
2022-11-20T02:44:03.393Z,98608.19
2022-11-20T02:46:30.474Z,98615.22
2022-11-20T02:48:57.307Z,98604.44
2022-11-20T02:51:24.219Z,98611.72
2022-11-20T02:53:51.082Z,98605.50
2022-11-20T02:56:19.405Z,98604.44
2022-11-20T02:58:46.194Z,98610.66
2022-11-20T03:01:13.385Z,98605.50
2022-11-20T03:03:40.243Z,98606.09
2022-11-20T03:06:07.459Z,98607.41
2022-11-20T03:08:34.301Z,98602.81
2022-11-20T03:11:03.934Z,98607.41
2022-11-20T03:13:32.094Z,98601.19
2022-11-20T03:15:59.163Z,98606.56
2022-11-20T03:18:28.715Z,98604.94
2022-11-20T03:20:58.822Z,98598.72
2022-11-20T03:23:25.592Z,98592.50
2022-11-20T03:25:52.614Z,98592.50
2022-11-20T03:28:19.384Z,98601.19
2022-11-20T03:30:47.530Z,98596.03
2022-11-20T03:33:14.300Z,98597.09
2022-11-20T03:35:41.092Z,98592.50
2022-11-20T03:38:07.841Z,98589.81
2022-11-20T03:40:35.781Z,98593.56
2022-11-20T03:43:02.517Z,98581.72
2022-11-20T03:45:29.324Z,98582.78
2022-11-20T03:47:57.437Z,98586.31
2022-11-20T03:50:24.373Z,98581.72
2022-11-20T03:52:51.160Z,98582.78
2022-11-20T03:55:18.176Z,98583.84
2022-11-20T03:57:44.915Z,98584.69
2022-11-20T04:00:13.110Z,98583.84
2022-11-20T04:02:39.865Z,98584.69
2022-11-20T04:05:08.730Z,98591.09
2022-11-20T04:07:35.823Z,98583.03
2022-11-20T04:10:02.601Z,98583.03
2022-11-20T04:12:33.170Z,98584.09
2022-11-20T04:15:00.067Z,98587.59
2022-11-20T04:17:27.156Z,98586.78
2022-11-20T04:19:53.920Z,98586.78
2022-11-20T04:22:22.056Z,98590.53
2022-11-20T04:24:48.797Z,98593.00
2022-11-20T04:27:15.578Z,98597.31
2022-11-20T04:29:42.636Z,98592.75
2022-11-20T04:32:09.703Z,98586.78
2022-11-20T04:34:36.572Z,98594.03
2022-11-20T04:37:03.334Z,98588.63
2022-11-20T04:39:31.503Z,98595.69
2022-11-20T04:42:16.728Z,98588.63
2022-11-20T04:44:43.562Z,98597.78
2022-11-20T04:47:10.291Z,98593.47
2022-11-20T04:49:37.090Z,98594.28
2022-11-20T04:52:03.993Z,98605.88
2022-11-20T04:54:32.166Z,98592.63
2022-11-20T04:56:58.917Z,98598.84
2022-11-20T04:59:25.673Z,98598.00
2022-11-20T05:01:52.679Z,98599.91
2022-11-20T05:04:19.658Z,98606.31
2022-11-20T05:06:46.649Z,98598.84
2022-11-20T05:09:13.639Z,98603.41
2022-11-20T05:11:41.736Z,98600.72
2022-11-20T05:14:08.578Z,98596.16
2022-11-20T05:16:36.398Z,98596.97
2022-11-20T05:19:03.456Z,98593.47
2022-11-20T05:21:32.338Z,98595.31
2022-11-20T05:23:59.447Z,98598.00
2022-11-20T05:26:26.410Z,98595.56
2022-11-20T05:28:54.620Z,98596.63
2022-11-20T05:31:27.104Z,98587.75
2022-11-20T05:33:56.415Z,98593.94
2022-11-20T05:36:23.248Z,98602.00
2022-11-20T05:38:51.167Z,98594.75
2022-11-20T05:41:20.258Z,98599.31
2022-11-20T05:43:48.252Z,98600.94
2022-11-20T05:46:21.225Z,98596.06
2022-11-20T05:48:50.449Z,98604.13
2022-11-20T05:51:20.195Z,98602.47
2022-11-20T05:53:48.759Z,98601.44
2022-11-20T05:56:18.221Z,98600.16
2022-11-20T05:58:45.765Z,98616.31
2022-11-20T06:01:17.600Z,98603.91
2022-11-20T06:03:48.421Z,98609.28
2022-11-20T06:06:16.112Z,98605.53
2022-11-20T06:08:43.454Z,98610.69
2022-11-20T06:11:13.401Z,98609.94
2022-11-20T06:13:42.312Z,98606.47
2022-11-20T06:16:10.102Z,98608.19
2022-11-20T06:18:37.337Z,98605.59
2022-11-20T06:21:07.696Z,98608.66
2022-11-20T06:23:35.548Z,98600.66
2022-11-20T06:26:04.244Z,98609.06
2022-11-20T06:28:31.114Z,98603.56
2022-11-20T06:30:58.001Z,98608.22
2022-11-20T06:33:25.215Z,98605.44
2022-11-20T06:35:56.832Z,98602.03
2022-11-20T06:38:28.768Z,98597.56
2022-11-20T06:40:56.053Z,98604.44
2022-11-20T06:43:23.421Z,98610.75
2022-11-20T06:45:53.371Z,98615.41
2022-11-20T06:48:20.227Z,98618.75
2022-11-20T06:50:47.033Z,98620.75
2022-11-20T06:53:13.827Z,98624.34
2022-11-20T06:55:45.051Z,98624.44
2022-11-20T06:58:11.940Z,98634.50
2022-11-20T07:00:38.911Z,98635.91
2022-11-20T07:03:06.214Z,98639.75
2022-11-20T07:05:33.478Z,98638.47
2022-11-20T07:08:00.419Z,98645.25
2022-11-20T07:10:27.302Z,98643.13
2022-11-20T07:12:56.113Z,98642.09
2022-11-20T07:15:25.102Z,98652.38
2022-11-20T07:17:51.879Z,98662.13
2022-11-20T07:20:18.862Z,98654.59
2022-11-20T07:22:45.735Z,98653.53
2022-11-20T07:25:12.576Z,98657.06
2022-11-20T07:27:39.325Z,98660.56
2022-11-20T07:30:08.440Z,98664.06
2022-11-20T07:32:35.188Z,98669.22
2022-11-20T07:35:01.955Z,98673.81
2022-11-20T07:37:28.797Z,98677.31
2022-11-20T07:39:55.575Z,98679.22
2022-11-20T07:42:22.311Z,98681.66
2022-11-20T07:44:51.430Z,98682.72
2022-11-20T07:47:19.543Z,98678.97
2022-11-20T07:49:46.281Z,98684.34
2022-11-20T07:52:13.036Z,98685.19
2022-11-20T07:54:39.807Z,98685.19
2022-11-20T07:57:06.546Z,98693.28
2022-11-20T07:59:33.324Z,98692.44
2022-11-20T08:02:00.332Z,98699.75
2022-11-20T08:04:28.451Z,98701.59
2022-11-20T08:06:55.272Z,98701.59
2022-11-20T08:09:22.459Z,98692.97
2022-11-20T08:12:18.372Z,98703.16
2022-11-20T08:14:45.181Z,98703.91
2022-11-20T08:17:12.353Z,98698.97
2022-11-20T08:19:40.507Z,98700.28
2022-11-20T08:22:07.247Z,98703.44
2022-11-20T08:24:34.046Z,98704.50
2022-11-20T08:27:01.234Z,98710.13
2022-11-20T08:29:28.348Z,98715.75
2022-11-20T08:31:55.327Z,98709.53
2022-11-20T08:34:22.087Z,98713.53
2022-11-20T08:36:50.221Z,98711.06
2022-11-20T08:39:17.120Z,98720.47
2022-11-20T08:41:43.980Z,98718.84
2022-11-20T08:44:10.802Z,98712.06
2022-11-20T08:46:39.412Z,98725.78
2022-11-20T08:49:07.217Z,98723.78
2022-11-20T08:51:34.649Z,98722.97
2022-11-20T08:54:03.635Z,98726.16
2022-11-20T08:56:30.487Z,98730.94
2022-11-20T09:01:44.426Z,98731.09
2022-11-20T09:04:12.659Z,98728.06
2022-11-20T09:06:39.519Z,98731.22
2022-11-20T09:09:07.731Z,98741.44
2022-11-20T09:11:36.023Z,98740.84
2022-11-20T09:14:03.841Z,98733.25
2022-11-20T09:16:30.734Z,98737.81
2022-11-20T09:19:20.676Z,98734.53
2022-11-20T09:21:44.213Z,98732.09
2022-11-20T09:24:12.426Z,98738.75
2022-11-20T09:26:39.158Z,98734.44
2022-11-20T09:29:06.011Z,98732.78
2022-11-20T09:31:32.901Z,98746.28
2022-11-20T09:33:59.647Z,98739.25
2022-11-20T09:36:27.337Z,98738.66
2022-11-20T09:38:54.854Z,98736.78
2022-11-20T09:41:40.909Z,98731.63
2022-11-20T09:44:19.870Z,98733.50
2022-11-20T09:46:54.435Z,98725.53
2022-11-20T09:49:34.741Z,98720.94
2022-11-20T09:52:19.771Z,98718.25
2022-11-20T09:54:46.845Z,98718.03
2022-11-20T09:57:19.958Z,98721.31
2022-11-20T09:59:51.082Z,98717.56
2022-11-20T10:02:26.804Z,98716.72
2022-11-20T10:04:58.448Z,98710.03
2022-11-20T10:07:32.924Z,98713.78
2022-11-20T10:10:00.655Z,98714.38
2022-11-20T10:12:41.183Z,98701.72
2022-11-20T10:15:18.019Z,98701.47
2022-11-20T10:18:02.845Z,98700.91
2022-11-20T10:20:36.595Z,98696.09
2022-11-20T10:23:25.742Z,98693.63
2022-11-20T10:26:00.116Z,98682.84
2022-11-20T10:28:39.752Z,98682.59
2022-11-20T10:31:12.342Z,98672.41
2022-11-20T10:34:04.950Z,98669.72
2022-11-20T10:36:34.967Z,98670.53
2022-11-20T10:39:07.382Z,98660.56
2022-11-20T10:41:41.013Z,98665.72
2022-11-20T10:44:15.512Z,98662.78
2022-11-20T10:46:45.726Z,98661.72
2022-11-20T10:49:15.599Z,98659.03
2022-11-20T10:51:53.255Z,98652.56
2022-11-20T10:54:28.460Z,98659.59
2022-11-20T10:57:02.093Z,98656.09
2022-11-20T10:59:42.655Z,98655.28
2022-11-20T11:02:21.025Z,98645.06
2022-11-20T11:04:50.098Z,98644.25
2022-11-20T11:07:21.681Z,98635.91
2022-11-20T11:09:51.577Z,98639.41
2022-11-20T11:12:19.402Z,98639.41
2022-11-20T11:14:49.713Z,98639.19
2022-11-20T11:17:23.841Z,98630.06
2022-11-20T11:20:15.870Z,98617.59
2022-11-20T11:22:46.232Z,98617.59
2022-11-20T11:25:22.946Z,98629.00
2022-11-20T11:27:50.704Z,98615.50
2022-11-20T11:30:20.897Z,98617.97
2022-11-20T11:32:48.339Z,98609.59
2022-11-20T11:35:27.008Z,98605.28
2022-11-20T11:38:03.199Z,98601.78
2022-11-20T11:40:32.748Z,98606.91
2022-11-20T11:43:02.704Z,98598.03
2022-11-20T11:45:31.036Z,98598.03
2022-11-20T11:48:01.364Z,98598.59
2022-11-20T11:50:29.622Z,98586.75
2022-11-20T11:53:08.989Z,98591.31
2022-11-20T11:55:39.163Z,98589.69
2022-11-20T11:58:15.350Z,98578.06
2022-11-20T12:00:56.117Z,98574.56
2022-11-20T12:03:28.299Z,98570.00
2022-11-20T12:06:00.652Z,98569.16
2022-11-20T12:08:33.701Z,98568.38
2022-11-20T12:11:06.656Z,98561.91
2022-11-20T12:13:45.059Z,98562.13
2022-11-20T12:16:15.622Z,98565.91
2022-11-20T12:18:43.814Z,98565.06
2022-11-20T12:21:20.870Z,98564.84
2022-11-20T12:24:16.758Z,98561.06
2022-11-20T12:26:57.378Z,98556.50
2022-11-20T12:29:33.550Z,98556.50
2022-11-20T12:32:32.454Z,98562.97
2022-11-20T12:35:11.442Z,98558.38
2022-11-20T12:37:49.227Z,98550.03
2022-11-20T12:40:29.745Z,98550.28
2022-11-20T12:43:30.749Z,98544.09
2022-11-20T12:46:19.428Z,98531.41
2022-11-20T12:49:06.697Z,98530.94
2022-11-20T12:51:59.458Z,98523.66
2022-11-20T12:55:04.640Z,98519.06
2022-11-20T12:57:41.772Z,98514.50
2022-11-20T13:00:15.151Z,98512.63
2022-11-20T13:03:32.310Z,98503.72
2022-11-20T13:06:10.989Z,98493.19
2022-11-20T13:08:40.941Z,98478.63
2022-11-20T13:11:15.628Z,98472.19
2022-11-20T13:13:55.843Z,98474.31
2022-11-20T13:16:31.848Z,98465.13
2022-11-20T13:19:03.233Z,98461.41
2022-11-20T13:21:37.858Z,98448.72
2022-11-20T13:24:21.251Z,98441.94
2022-11-20T13:26:48.426Z,98437.63
2022-11-20T13:29:18.361Z,98439.50
2022-11-20T13:31:47.212Z,98443.00
2022-11-20T13:34:25.548Z,98442.19
2022-11-20T13:36:55.920Z,98437.63
2022-11-20T13:39:26.766Z,98431.16
2022-11-20T13:41:56.990Z,98426.84
2022-11-20T13:44:28.303Z,98432.00
2022-11-20T13:46:54.903Z,98419.56
2022-11-20T13:49:27.288Z,98423.31
2022-11-20T13:52:20.854Z,98422.50
2022-11-20T13:55:19.014Z,98413.59
2022-11-20T13:58:03.047Z,98401.19
2022-11-20T14:00:29.882Z,98406.81
2022-11-20T14:03:08.375Z,98406.81
2022-11-20T14:05:38.689Z,98396.88
2022-11-20T14:08:13.620Z,98396.88
2022-11-20T14:10:40.554Z,98397.66
2022-11-20T14:13:18.544Z,98394.97
2022-11-20T14:15:45.529Z,98398.50
2022-11-20T14:18:14.903Z,98397.66
2022-11-20T14:20:43.418Z,98386.88
2022-11-20T14:23:12.313Z,98386.88
2022-11-20T14:25:43.221Z,98383.94
2022-11-20T14:28:18.075Z,98385.00
2022-11-20T14:30:47.605Z,98386.63
2022-11-20T14:33:15.535Z,98385.00
2022-11-20T14:35:47.023Z,98385.25
2022-11-20T14:38:17.956Z,98373.41
2022-11-20T14:40:45.015Z,98375.28
2022-11-20T14:43:20.611Z,98375.28
2022-11-20T14:45:53.219Z,98373.63
2022-11-20T14:48:22.351Z,98372.59
2022-11-20T14:50:49.120Z,98371.78
2022-11-20T14:53:23.846Z,98370.69
2022-11-20T14:55:58.987Z,98368.84
2022-11-20T14:58:28.404Z,98368.84
2022-11-20T15:00:57.034Z,98360.16
2022-11-20T15:03:29.187Z,98355.59
2022-11-20T15:05:58.557Z,98357.72
2022-11-20T15:08:26.899Z,98356.66
2022-11-20T15:10:54.354Z,98355.03
2022-11-20T15:13:27.562Z,98355.84
2022-11-20T15:15:58.420Z,98353.13
2022-11-20T15:18:29.127Z,98353.97
2022-11-20T15:20:57.137Z,98344.25
2022-11-20T15:23:24.321Z,98338.88
2022-11-20T15:25:52.502Z,98334.28
2022-11-20T15:28:22.721Z,98344.25
2022-11-20T15:30:50.419Z,98339.66
2022-11-20T15:33:17.976Z,98341.81
2022-11-20T15:35:45.272Z,98340.72
2022-11-20T15:38:12.089Z,98331.03
2022-11-20T15:40:39.118Z,98340.97
2022-11-20T15:43:13.301Z,98336.41
2022-11-20T15:45:44.799Z,98340.16
2022-11-20T15:48:14.536Z,98330.19
2022-11-20T15:50:51.859Z,98336.41
2022-11-20T15:53:18.811Z,98335.59
2022-11-20T15:55:45.623Z,98333.13
2022-11-20T15:58:13.786Z,98336.66
2022-11-20T16:00:40.544Z,98338.53
2022-11-20T16:03:10.599Z,98334.75
2022-11-20T16:05:37.388Z,98340.97
2022-11-20T16:08:09.985Z,98327.50
2022-11-20T16:10:38.706Z,98337.22
2022-11-20T16:13:24.689Z,98334.75
2022-11-20T16:15:57.254Z,98342.28
2022-11-20T16:18:24.046Z,98325.88
2022-11-20T16:20:52.400Z,98318.03
2022-11-20T16:23:19.893Z,98320.72
2022-11-20T16:25:47.344Z,98318.28
2022-11-20T16:28:18.645Z,98311.81
2022-11-20T16:30:46.812Z,98319.91
2022-11-20T16:33:16.298Z,98318.03
2022-11-20T16:35:43.145Z,98309.94
2022-11-20T16:38:10.295Z,98309.94
2022-11-20T16:40:37.144Z,98316.41
2022-11-20T16:43:10.210Z,98303.72
2022-11-20T16:45:41.886Z,98312.38
2022-11-20T16:48:12.998Z,98316.16
2022-11-20T16:50:47.008Z,98325.88
2022-11-20T16:53:13.817Z,98325.03
2022-11-20T16:55:40.529Z,98312.38
2022-11-20T16:58:07.282Z,98315.09
2022-11-20T17:00:37.082Z,98308.63
2022-11-20T17:03:04.367Z,98307.56
2022-11-20T17:05:31.380Z,98314.00
2022-11-20T17:07:59.563Z,98314.25
2022-11-20T17:10:26.391Z,98308.63
2022-11-20T17:12:53.206Z,98308.63
2022-11-20T17:15:21.267Z,98317.78
2022-11-20T17:17:48.030Z,98307.00
2022-11-20T17:20:14.822Z,98313.19
2022-11-20T17:22:41.589Z,98314.00
2022-11-20T17:25:09.821Z,98316.72
2022-11-20T17:27:36.585Z,98311.06
2022-11-20T17:30:03.617Z,98310.25
2022-11-20T17:32:30.366Z,98321.03
2022-11-20T17:34:58.859Z,98327.25
2022-11-20T17:37:25.727Z,98325.38
2022-11-20T17:39:52.511Z,98323.25
2022-11-20T17:42:30.012Z,98323.47
2022-11-20T17:44:58.867Z,98323.47
2022-11-20T17:47:26.167Z,98312.94
2022-11-20T17:49:53.599Z,98320.00
2022-11-20T17:52:20.512Z,98309.22
2022-11-20T17:54:47.325Z,98321.03
2022-11-20T17:57:32.920Z,98329.13
2022-11-20T18:00:01.111Z,98329.13
2022-11-20T18:02:27.887Z,98334.50
2022-11-20T18:04:54.766Z,98328.06
2022-11-20T18:07:21.616Z,98336.16
2022-11-20T18:09:48.420Z,98336.16
2022-11-20T18:12:15.213Z,98331.81
2022-11-20T18:14:43.561Z,98342.59
2022-11-20T18:17:14.190Z,98334.50
2022-11-20T18:20:00.703Z,98327.00
2022-11-20T18:22:29.935Z,98343.75
2022-11-20T18:24:56.697Z,98347.50
2022-11-20T18:27:23.925Z,98349.13
2022-11-20T18:29:52.202Z,98354.75
2022-11-20T18:32:22.046Z,98353.72
2022-11-20T18:34:49.068Z,98349.13
2022-11-20T18:37:16.615Z,98347.25
2022-11-20T18:39:43.676Z,98339.97
2022-11-20T18:42:31.936Z,98339.97
2022-11-20T18:45:00.258Z,98334.03
2022-11-20T18:47:31.842Z,98319.47
2022-11-20T18:50:01.003Z,98312.44
2022-11-20T18:52:30.090Z,98311.38
2022-11-20T18:54:57.016Z,98311.38
2022-11-20T18:57:26.361Z,98320.53
2022-11-20T18:59:53.646Z,98323.25
2022-11-20T19:02:21.603Z,98319.72
2022-11-20T19:04:50.035Z,98326.19
2022-11-20T19:07:16.968Z,98321.63
2022-11-20T19:09:45.407Z,98313.53
2022-11-20T19:12:12.882Z,98318.91
2022-11-20T19:14:39.669Z,98317.03
2022-11-20T19:17:07.432Z,98318.91
2022-11-20T19:19:34.296Z,98318.91
2022-11-20T19:22:02.662Z,98328.88
2022-11-20T19:24:29.518Z,98324.31
2022-11-20T19:26:56.656Z,98327.25
2022-11-20T19:29:24.777Z,98335.09
2022-11-20T19:31:51.909Z,98331.31
2022-11-20T19:34:19.039Z,98326.19
2022-11-20T19:36:45.906Z,98335.88
2022-11-20T19:39:14.199Z,98339.41
2022-11-20T19:41:41.424Z,98334.84
2022-11-20T19:44:10.691Z,98332.41
2022-11-20T19:46:38.904Z,98334.03
2022-11-20T19:49:07.516Z,98330.50
2022-11-20T19:51:35.341Z,98328.63
2022-11-20T19:54:03.066Z,98323.25
2022-11-20T19:56:33.171Z,98323.25
2022-11-20T19:59:00.638Z,98328.06
2022-11-20T20:01:30.714Z,98334.28
2022-11-20T20:04:01.445Z,98339.66
2022-11-20T20:06:29.226Z,98340.50
2022-11-20T20:08:57.183Z,98342.34
2022-11-20T20:11:26.098Z,98345.06
2022-11-20T20:13:56.040Z,98346.94
2022-11-20T20:16:24.722Z,98350.44
2022-11-20T20:18:54.783Z,98356.41
2022-11-20T20:21:21.592Z,98357.22
2022-11-20T20:23:51.422Z,98368.84
2022-11-20T20:26:18.252Z,98375.59
2022-11-20T20:28:45.006Z,98378.31
2022-11-20T20:31:15.142Z,98382.06
2022-11-20T20:33:42.265Z,98384.25
2022-11-20T20:36:11.071Z,98381.81
2022-11-20T20:38:37.878Z,98380.16
2022-11-20T20:41:05.180Z,98379.38
2022-11-20T20:43:31.999Z,98378.78
2022-11-20T20:45:58.743Z,98377.72
2022-11-20T20:48:26.931Z,98376.09
2022-11-20T20:50:54.416Z,98381.47
2022-11-20T20:53:21.649Z,98383.38
2022-11-20T20:55:54.428Z,98393.59
2022-11-20T20:58:21.225Z,98394.66
2022-11-20T21:00:47.976Z,98388.69
2022-11-20T21:03:14.828Z,98404.06
2022-11-20T21:05:42.981Z,98405.38
2022-11-20T21:08:22.301Z,98402.09
2022-11-20T21:10:49.475Z,98406.56
2022-11-20T21:13:16.588Z,98395.78
2022-11-20T21:15:47.029Z,98390.09
2022-11-20T21:18:14.870Z,98392.78
2022-11-20T21:21:01.719Z,98393.28
2022-11-20T21:23:28.675Z,98390.25
2022-11-20T21:25:55.522Z,98387.81
2022-11-20T21:28:22.347Z,98380.56
2022-11-20T21:30:49.171Z,98388.03
2022-11-20T21:33:16.151Z,98381.03
2022-11-20T21:35:44.348Z,98378.56
2022-11-20T21:38:11.080Z,98379.41
2022-11-20T21:40:37.867Z,98372.34
2022-11-20T21:43:04.634Z,98380.69
2022-11-20T21:45:31.417Z,98374.50
2022-11-20T21:47:58.167Z,98374.97
2022-11-20T21:50:24.997Z,98379.06
2022-11-20T21:52:53.123Z,98376.59
2022-11-20T21:55:19.963Z,98379.31
2022-11-20T21:57:46.704Z,98369.84
2022-11-20T22:00:14.316Z,98371.69
2022-11-20T22:02:41.061Z,98373.56
2022-11-20T22:05:08.630Z,98370.88
2022-11-20T22:07:35.563Z,98370.03
2022-11-20T22:10:04.358Z,98360.56
2022-11-20T22:12:31.314Z,98361.41
2022-11-20T22:14:58.113Z,98365.97
2022-11-20T22:17:44.826Z,98365.16
2022-11-20T22:20:11.896Z,98358.13
2022-11-20T22:22:40.052Z,98361.88
2022-11-20T22:25:09.092Z,98351.09
2022-11-20T22:27:35.832Z,98351.09
2022-11-20T22:30:02.646Z,98336.25
2022-11-20T22:32:29.423Z,98337.09
2022-11-20T22:34:56.185Z,98345.16
2022-11-20T22:37:22.967Z,98353.50
2022-11-20T22:39:49.818Z,98355.59
2022-11-20T22:42:17.925Z,98349.13
2022-11-20T22:44:44.670Z,98357.22
2022-11-20T22:47:11.701Z,98355.59
2022-11-20T22:49:38.490Z,98370.13
2022-11-20T22:52:05.469Z,98362.06
2022-11-20T22:54:32.270Z,98365.56
2022-11-20T22:56:59.026Z,98346.72
2022-11-20T22:59:27.115Z,98330.56
2022-11-20T23:01:53.873Z,98338.63
2022-11-20T23:04:20.779Z,98322.72
2022-11-20T23:06:47.631Z,98338.03
2022-11-20T23:09:14.471Z,98336.41
2022-11-20T23:11:41.360Z,98352.59
2022-11-20T23:14:12.697Z,98358.22
2022-11-20T23:16:40.829Z,98364.16
2022-11-20T23:19:09.272Z,98373.53
2022-11-20T23:21:37.583Z,98367.59
2022-11-20T23:24:05.609Z,98367.59
2022-11-20T23:26:35.165Z,98350.59
2022-11-20T23:29:02.774Z,98346.06
2022-11-20T23:31:31.672Z,98339.84
2022-11-20T23:34:00.075Z,98346.06
2022-11-20T23:36:27.486Z,98355.75
2022-11-20T23:38:54.237Z,98346.06
2022-11-20T23:41:21.055Z,98346.53
2022-11-20T23:43:47.854Z,98344.44
2022-11-20T23:46:16.741Z,98344.44
2022-11-20T23:48:45.167Z,98347.13
2022-11-20T23:51:14.318Z,98349.81
2022-11-20T23:53:41.302Z,98353.53
2022-11-20T23:56:08.477Z,98348.16
2022-11-20T23:58:37.039Z,98350.84
